createdAt,value
2022-10-17T00:02:00.916Z,1.85
2022-10-17T00:04:27.591Z,2.70
2022-10-17T00:06:54.164Z,5.63
2022-10-17T00:09:20.687Z,3.78
2022-10-17T00:11:47.263Z,2.22
2022-10-17T00:14:13.889Z,2.05
2022-10-17T00:16:40.493Z,2.50
2022-10-17T00:19:07.487Z,2.53
2022-10-17T00:21:35.045Z,2.42
2022-10-17T00:24:01.734Z,2.33
2022-10-17T00:26:31.207Z,2.80
2022-10-17T00:28:57.898Z,4.00
2022-10-17T00:31:25.170Z,2.55
2022-10-17T00:33:52.216Z,4.15
2022-10-17T00:36:21.780Z,4.82
2022-10-17T00:38:50.891Z,4.50
2022-10-17T00:41:19.552Z,5.05
2022-10-17T00:43:53.196Z,6.00
2022-10-17T00:46:21.278Z,5.32
2022-10-17T00:48:50.176Z,3.95
2022-10-17T00:51:17.792Z,4.57
2022-10-17T00:53:44.511Z,2.90
2022-10-17T00:56:11.543Z,3.20
2022-10-17T00:58:38.233Z,3.33
2022-10-17T01:01:05.033Z,2.80
2022-10-17T01:03:31.643Z,3.58
2022-10-17T01:05:58.243Z,4.10
2022-10-17T01:08:24.860Z,3.53
2022-10-17T01:10:51.379Z,4.90
2022-10-17T01:13:25.595Z,2.67
2022-10-17T01:16:07.463Z,3.50
2022-10-17T01:18:56.836Z,4.03
2022-10-17T01:21:38.389Z,2.95
2022-10-17T01:24:07.895Z,5.95
2022-10-17T01:26:56.132Z,3.40
2022-10-17T01:29:47.519Z,4.15
2022-10-17T01:32:17.423Z,6.25
2022-10-17T01:34:56.067Z,3.75
2022-10-17T01:37:39.148Z,5.15
2022-10-17T01:40:31.695Z,4.80
2022-10-17T01:43:00.955Z,5.35
2022-10-17T01:45:33.826Z,3.55
2022-10-17T01:48:04.022Z,5.43
2022-10-17T01:50:44.336Z,4.15
2022-10-17T01:53:14.696Z,4.70
2022-10-17T01:55:44.095Z,4.25
2022-10-17T01:58:15.279Z,3.92
2022-10-17T02:00:43.168Z,4.18
2022-10-17T02:03:13.763Z,6.03
2022-10-17T02:05:41.745Z,4.75
2022-10-17T02:08:08.403Z,6.43
2022-10-17T02:11:00.023Z,3.97
2022-10-17T02:13:48.551Z,6.07
2022-10-17T02:16:33.707Z,4.07
2022-10-17T02:19:16.068Z,5.10
2022-10-17T02:21:50.937Z,5.05
2022-10-17T02:24:38.447Z,4.45
2022-10-17T02:27:26.407Z,5.63
2022-10-17T02:29:59.299Z,5.85
2022-10-17T02:32:34.935Z,4.35
2022-10-17T02:35:04.081Z,4.57
2022-10-17T02:37:31.719Z,4.07
2022-10-17T02:40:00.217Z,7.50
2022-10-17T02:42:28.303Z,4.80
2022-10-17T02:44:55.469Z,4.82
2022-10-17T02:47:26.636Z,6.07
2022-10-17T02:49:55.541Z,6.30
2022-10-17T02:52:43.204Z,3.92
2022-10-17T02:55:36.146Z,4.03
2022-10-17T02:58:13.884Z,4.15
2022-10-17T03:00:41.047Z,9.27
2022-10-17T03:03:25.368Z,5.45
2022-10-17T03:05:52.906Z,4.38
2022-10-17T03:08:20.054Z,4.72
2022-10-17T03:10:46.771Z,4.63
2022-10-17T03:13:14.404Z,4.65
2022-10-17T03:15:41.107Z,4.80
2022-10-17T03:18:07.958Z,5.65
2022-10-17T03:20:34.524Z,7.18
2022-10-17T03:23:01.069Z,5.45
2022-10-17T03:25:28.144Z,5.05
2022-10-17T03:27:54.912Z,4.75
2022-10-17T03:30:21.459Z,4.70
2022-10-17T03:32:48.086Z,5.30
2022-10-17T03:35:15.190Z,4.93
2022-10-17T03:37:41.783Z,5.13
2022-10-17T03:40:08.920Z,4.80
2022-10-17T03:42:35.479Z,5.50
2022-10-17T03:45:02.077Z,3.47
2022-10-17T03:47:29.467Z,4.55
2022-10-17T03:49:56.117Z,8.27
2022-10-17T03:52:22.718Z,4.03
2022-10-17T03:54:50.707Z,6.50
2022-10-17T03:57:18.369Z,5.68
2022-10-17T03:59:45.119Z,4.87
2022-10-17T04:02:11.690Z,6.13
2022-10-17T04:04:38.228Z,4.80
2022-10-17T04:07:04.813Z,4.50
2022-10-17T04:09:31.368Z,6.32
2022-10-17T04:11:57.958Z,3.95
2022-10-17T04:14:24.571Z,6.00
2022-10-17T04:16:51.192Z,5.13
2022-10-17T04:19:17.745Z,6.85
2022-10-17T04:21:44.326Z,9.25
2022-10-17T04:24:11.912Z,7.03
2022-10-17T04:26:38.521Z,5.43
2022-10-17T04:29:05.104Z,5.55
2022-10-17T04:31:31.694Z,7.28
2022-10-17T04:33:58.227Z,5.45
2022-10-17T04:36:24.850Z,9.02
2022-10-17T04:38:51.461Z,5.03
2022-10-17T04:41:18.880Z,6.60
2022-10-17T04:43:48.623Z,5.22
2022-10-17T04:46:17.883Z,5.50
2022-10-17T04:48:44.887Z,5.18
2022-10-17T04:51:14.225Z,7.43
2022-10-17T04:53:41.698Z,5.78
2022-10-17T04:56:14.434Z,6.15
2022-10-17T04:58:41.851Z,5.43
2022-10-17T05:01:10.369Z,5.32
2022-10-17T05:06:08.100Z,5.95
2022-10-17T05:08:35.510Z,6.78
2022-10-17T05:11:02.151Z,6.55
2022-10-17T05:13:28.748Z,9.90
2022-10-17T05:15:59.843Z,7.75
2022-10-17T05:18:26.946Z,6.05
2022-10-17T05:20:53.671Z,5.75
2022-10-17T05:23:20.216Z,7.40
2022-10-17T05:25:46.783Z,7.00
2022-10-17T05:28:13.385Z,5.97
2022-10-17T05:30:39.944Z,5.75
2022-10-17T05:33:06.519Z,8.10
2022-10-17T05:35:33.116Z,7.47
2022-10-17T05:38:00.604Z,6.50
2022-10-17T05:40:27.380Z,8.15
2022-10-17T05:42:53.960Z,7.28
2022-10-17T05:45:20.527Z,7.28
2022-10-17T05:47:47.081Z,6.47
2022-10-17T05:50:13.755Z,8.18
2022-10-17T05:52:42.857Z,7.90
2022-10-17T05:55:11.720Z,6.30
2022-10-17T05:57:38.476Z,6.68
2022-10-17T06:00:06.094Z,5.78
2022-10-17T06:02:33.191Z,8.30
2022-10-17T06:05:00.093Z,5.38
2022-10-17T06:07:26.735Z,7.78
2022-10-17T06:09:53.310Z,6.25
2022-10-17T06:12:19.940Z,8.73
2022-10-17T06:14:46.540Z,7.93
2022-10-17T06:17:16.030Z,7.95
2022-10-17T06:19:44.796Z,6.78
2022-10-17T06:22:11.911Z,5.88
2022-10-17T06:24:38.605Z,7.78
2022-10-17T06:27:10.819Z,6.07
2022-10-17T06:29:39.085Z,7.50
2022-10-17T06:32:06.936Z,6.18
2022-10-17T06:34:35.292Z,6.90
2022-10-17T06:37:02.007Z,6.20
2022-10-17T06:39:33.810Z,7.88
2022-10-17T06:42:04.253Z,5.57
2022-10-17T06:44:31.943Z,6.10
2022-10-17T06:46:59.614Z,6.15
2022-10-17T06:49:26.804Z,5.75
2022-10-17T06:51:53.800Z,8.20
2022-10-17T06:54:20.463Z,5.75
2022-10-17T06:56:47.032Z,8.02
2022-10-17T06:59:13.652Z,6.50
2022-10-17T07:01:41.892Z,5.35
2022-10-17T07:04:11.285Z,5.45
2022-10-17T07:06:38.545Z,6.13
2022-10-17T07:09:07.004Z,7.63
2022-10-17T07:11:35.115Z,6.82
2022-10-17T07:14:02.175Z,7.90
2022-10-17T07:16:28.983Z,6.78
2022-10-17T07:18:55.848Z,6.55
2022-10-17T07:21:22.492Z,6.47
2022-10-17T07:23:49.032Z,6.53
2022-10-17T07:26:17.535Z,6.53
2022-10-17T07:28:45.375Z,6.88
2022-10-17T07:31:15.061Z,6.03
2022-10-17T07:33:42.281Z,6.13
2022-10-17T07:36:09.243Z,5.38
2022-10-17T07:38:36.304Z,5.75
2022-10-17T07:41:05.391Z,10.15
2022-10-17T07:43:32.358Z,6.85
2022-10-17T07:46:01.136Z,5.32
2022-10-17T07:48:27.755Z,6.05
2022-10-17T07:50:54.293Z,6.75
2022-10-17T07:53:21.003Z,6.10
2022-10-17T07:55:49.596Z,6.45
2022-10-17T08:00:42.722Z,5.35
2022-10-17T08:03:10.873Z,7.88
2022-10-17T08:05:37.463Z,7.35
2022-10-17T08:08:04.113Z,6.10
2022-10-17T08:10:30.676Z,7.53
2022-10-17T08:12:58.522Z,6.47
2022-10-17T08:15:29.382Z,4.57
2022-10-17T08:17:59.317Z,4.90
2022-10-17T08:20:26.232Z,10.15
2022-10-17T08:22:54.396Z,7.68
2022-10-17T08:25:21.616Z,6.05
2022-10-17T08:27:48.251Z,6.35
2022-10-17T08:30:14.960Z,5.82
2022-10-17T08:32:41.927Z,5.82
2022-10-17T08:35:08.898Z,6.43
2022-10-17T08:37:35.508Z,5.50
2022-10-17T08:40:02.073Z,6.70
2022-10-17T08:42:40.651Z,4.90
2022-10-17T08:45:22.506Z,5.13
2022-10-17T08:47:53.325Z,5.55
2022-10-17T08:50:35.052Z,5.00
2022-10-17T08:53:07.803Z,5.38
2022-10-17T08:55:45.713Z,6.10
2022-10-17T08:58:20.368Z,4.85
2022-10-17T09:00:55.872Z,4.97
2022-10-17T09:03:22.418Z,9.27
2022-10-17T09:06:16.496Z,5.32
2022-10-17T09:08:48.652Z,7.95
2022-10-17T09:11:43.484Z,4.50
2022-10-17T09:14:09.968Z,6.28
2022-10-17T09:16:59.499Z,4.45
2022-10-17T09:19:33.645Z,5.53
2022-10-17T09:22:32.096Z,5.43
2022-10-17T09:25:03.263Z,5.75
2022-10-17T09:27:40.760Z,5.55
2022-10-17T09:30:45.182Z,6.05
2022-10-17T09:33:34.822Z,4.93
2022-10-17T09:36:19.526Z,6.00
2022-10-17T09:41:43.716Z,5.03
2022-10-17T09:44:22.876Z,5.28
2022-10-17T09:47:17.487Z,4.85
2022-10-17T09:49:46.137Z,5.85
2022-10-17T09:52:20.211Z,7.00
2022-10-17T09:54:50.168Z,4.88
2022-10-17T09:57:18.272Z,5.57
2022-10-17T10:00:02.815Z,5.38
2022-10-17T10:02:31.224Z,3.78
2022-10-17T10:07:37.142Z,6.32
2022-10-17T10:10:06.073Z,5.00
2022-10-17T10:12:36.266Z,6.55
2022-10-17T10:15:24.059Z,4.70
2022-10-17T10:17:50.634Z,4.53
2022-10-17T10:20:34.043Z,8.23
2022-10-17T10:23:18.307Z,10.70
2022-10-17T10:25:56.735Z,6.60
2022-10-17T10:30:55.700Z,6.82
2022-10-17T10:33:24.095Z,7.80
2022-10-17T10:36:01.220Z,4.72
2022-10-17T10:38:28.513Z,4.13
2022-10-17T10:40:57.191Z,7.63
2022-10-17T10:43:33.358Z,6.32
2022-10-17T10:46:00.744Z,7.28
2022-10-17T10:48:37.548Z,5.80
2022-10-17T10:51:07.100Z,7.25
2022-10-17T10:53:47.543Z,5.22
2022-10-17T10:56:20.034Z,7.38
2022-10-17T10:59:03.545Z,7.47
2022-10-17T11:01:48.375Z,9.10
2022-10-17T11:04:32.056Z,6.72
2022-10-17T11:07:17.693Z,9.63
2022-10-17T11:09:54.904Z,5.88
2022-10-17T11:12:28.297Z,7.78
2022-10-17T11:15:08.363Z,5.20
2022-10-17T11:18:03.427Z,10.35
2022-10-17T11:20:38.631Z,5.22
2022-10-17T11:23:14.249Z,7.03
2022-10-17T11:25:42.168Z,8.02
2022-10-17T11:28:14.444Z,8.95
2022-10-17T11:30:48.437Z,10.07
2022-10-17T11:33:20.544Z,5.55
2022-10-17T11:35:49.822Z,11.35
2022-10-17T11:38:32.873Z,9.57
2022-10-17T11:41:00.343Z,9.38
2022-10-17T11:43:31.321Z,8.90
2022-10-17T11:46:25.058Z,6.50
2022-10-17T11:49:16.111Z,11.40
2022-10-17T11:52:04.385Z,9.10
2022-10-17T11:54:37.405Z,10.65
2022-10-17T11:57:36.096Z,11.38
2022-10-17T12:00:17.576Z,9.27
2022-10-17T12:02:44.083Z,13.10
2022-10-17T12:05:24.994Z,7.60
2022-10-17T12:08:05.900Z,6.47
2022-10-17T12:11:05.630Z,7.05
2022-10-17T12:13:32.530Z,9.40
2022-10-17T12:16:19.418Z,10.10
2022-10-17T12:18:46.970Z,6.70
2022-10-17T12:21:14.061Z,7.97
2022-10-17T12:23:41.282Z,8.85
2022-10-17T12:26:09.599Z,8.70
2022-10-17T12:28:46.987Z,11.55
2022-10-17T12:31:17.452Z,12.90
2022-10-17T12:33:46.772Z,12.57
2022-10-17T12:36:22.284Z,12.30
2022-10-17T12:39:13.606Z,11.85
2022-10-17T12:41:40.261Z,7.80
2022-10-17T12:44:12.936Z,11.60
2022-10-17T12:47:03.444Z,11.20
2022-10-17T12:49:39.850Z,13.95
2022-10-17T12:52:45.119Z,9.73
2022-10-17T12:55:14.642Z,9.20
2022-10-17T12:58:00.140Z,8.77
2022-10-17T13:00:49.874Z,11.38
2022-10-17T13:03:29.274Z,8.93
2022-10-17T13:05:58.250Z,8.85
2022-10-17T13:08:28.856Z,7.93
2022-10-17T13:10:56.070Z,12.07
2022-10-17T13:13:33.817Z,10.27
2022-10-17T13:16:00.414Z,10.25
2022-10-17T13:18:29.059Z,11.30
2022-10-17T13:21:06.001Z,11.80
2022-10-17T13:23:37.833Z,13.18
2022-10-17T13:26:12.246Z,15.02
2022-10-17T13:28:39.648Z,10.82
2022-10-17T13:31:07.085Z,8.53
2022-10-17T13:33:34.005Z,11.57
2022-10-17T13:36:03.333Z,9.45
2022-10-17T13:38:32.781Z,9.43
2022-10-17T13:41:16.557Z,10.20
2022-10-17T13:43:48.108Z,11.07
2022-10-17T13:46:37.981Z,10.13
2022-10-17T13:49:23.201Z,10.23
2022-10-17T13:51:53.515Z,10.65
2022-10-17T13:54:32.215Z,14.13
2022-10-17T13:57:00.546Z,9.70
2022-10-17T13:59:47.861Z,12.63
2022-10-17T14:02:17.356Z,8.37
2022-10-17T14:05:15.526Z,8.55
2022-10-17T14:08:10.051Z,7.25
2022-10-17T14:10:33.763Z,10.02
2022-10-17T14:13:01.299Z,9.05
2022-10-17T14:15:31.463Z,10.73
2022-10-17T14:18:07.994Z,12.60
2022-10-17T14:23:34.608Z,7.88
2022-10-17T14:26:13.432Z,9.20
2022-10-17T14:28:42.031Z,8.43
2022-10-17T14:31:31.318Z,10.85
2022-10-17T14:33:58.155Z,7.45
2022-10-17T14:36:39.439Z,8.02
2022-10-17T14:39:13.327Z,13.35
2022-10-17T14:41:44.128Z,10.43
2022-10-17T14:44:40.331Z,9.52
2022-10-17T14:47:38.171Z,8.40
2022-10-17T14:50:20.680Z,18.87
2022-10-17T14:53:04.643Z,10.23
2022-10-17T14:55:33.550Z,12.70
2022-10-17T14:58:00.164Z,9.07
2022-10-17T15:00:26.879Z,14.93
2022-10-17T15:02:54.847Z,7.72
2022-10-17T15:05:23.288Z,11.02
2022-10-17T15:07:49.855Z,8.45
2022-10-17T15:10:25.600Z,7.85
2022-10-17T15:12:57.541Z,9.38
2022-10-17T15:15:30.228Z,9.85
2022-10-17T15:17:56.776Z,10.70
2022-10-17T15:20:27.880Z,12.45
2022-10-17T15:22:55.339Z,10.02
2022-10-17T15:25:22.233Z,12.13
2022-10-17T15:27:48.920Z,8.55
2022-10-17T15:30:21.815Z,9.90
2022-10-17T15:32:49.300Z,8.65
2022-10-17T15:35:16.493Z,10.18
2022-10-17T15:37:43.732Z,7.05
2022-10-17T15:40:15.866Z,10.95
2022-10-17T15:42:42.880Z,9.18
2022-10-17T15:45:17.630Z,8.32
2022-10-17T15:47:52.586Z,8.43
2022-10-17T15:50:19.951Z,12.55
2022-10-17T15:52:47.252Z,7.15
2022-10-17T15:55:13.956Z,9.85
2022-10-17T15:57:42.776Z,11.60
2022-10-17T16:00:35.721Z,11.27
2022-10-17T16:03:02.280Z,9.50
2022-10-17T16:05:29.776Z,12.13
2022-10-17T16:07:57.817Z,12.90
2022-10-17T16:10:25.939Z,12.32
2022-10-17T16:12:52.627Z,9.15
2022-10-17T16:15:28.618Z,11.20
2022-10-17T16:17:56.582Z,7.25
2022-10-17T16:20:24.457Z,8.13
2022-10-17T16:22:51.416Z,12.15
2022-10-17T16:25:27.203Z,8.50
2022-10-17T16:27:55.842Z,17.33
2022-10-17T16:30:23.898Z,10.13
2022-10-17T16:32:51.162Z,14.15
2022-10-17T16:35:20.396Z,13.80
2022-10-17T16:37:47.628Z,8.27
2022-10-17T16:40:14.924Z,9.95
2022-10-17T16:42:41.536Z,13.25
2022-10-17T16:45:08.727Z,11.13
2022-10-17T16:47:35.325Z,13.48
2022-10-17T16:50:01.911Z,9.23
2022-10-17T16:52:28.662Z,9.60
2022-10-17T16:54:55.469Z,9.32
2022-10-17T16:57:22.104Z,12.75
2022-10-17T16:59:48.705Z,10.20
2022-10-17T17:02:17.582Z,7.18
2022-10-17T17:04:47.255Z,11.88
2022-10-17T17:07:13.994Z,8.57
2022-10-17T17:09:40.663Z,8.60
2022-10-17T17:12:07.195Z,8.85
2022-10-17T17:14:33.768Z,10.77
2022-10-17T17:17:00.368Z,12.15
2022-10-17T17:19:26.958Z,7.30
2022-10-17T17:21:53.540Z,6.85
2022-10-17T17:24:21.649Z,8.18
2022-10-17T17:26:55.641Z,12.75
2022-10-17T17:29:22.982Z,13.18
2022-10-17T17:31:50.420Z,9.30
2022-10-17T17:34:18.291Z,9.65
2022-10-17T17:36:45.335Z,9.35
2022-10-17T17:39:13.304Z,8.73
2022-10-17T17:41:40.953Z,6.97
2022-10-17T17:44:11.217Z,10.70
2022-10-17T17:46:41.160Z,8.32
2022-10-17T17:49:07.709Z,8.48
2022-10-17T17:51:34.765Z,9.15
2022-10-17T17:54:01.328Z,12.52
2022-10-17T17:56:29.921Z,8.98
2022-10-17T18:01:26.215Z,8.77
2022-10-17T18:03:54.401Z,9.02
2022-10-17T18:06:21.791Z,8.93
2022-10-17T18:08:50.916Z,9.70
2022-10-17T18:11:19.726Z,7.57
2022-10-17T18:13:53.806Z,11.18
2022-10-17T18:16:20.360Z,8.15
2022-10-17T18:18:46.929Z,9.80
2022-10-17T18:21:14.212Z,13.25
2022-10-17T18:23:42.474Z,12.45
2022-10-17T18:26:09.718Z,14.45
2022-10-17T18:28:38.154Z,17.25
2022-10-17T18:33:40.032Z,18.48
2022-10-17T18:36:09.237Z,13.93
2022-10-17T18:38:36.089Z,11.00
2022-10-17T18:41:13.761Z,16.33
2022-10-17T18:43:42.030Z,12.15
2022-10-17T18:46:14.881Z,10.68
2022-10-17T18:48:44.376Z,14.77
2022-10-17T18:51:11.549Z,12.95
2022-10-17T18:53:42.229Z,15.38
2022-10-17T18:56:09.483Z,12.35
2022-10-17T18:58:37.525Z,24.27
2022-10-17T19:01:10.753Z,14.43
2022-10-17T19:03:38.407Z,17.08
2022-10-17T19:06:07.497Z,10.53
2022-10-17T19:08:35.187Z,14.50
2022-10-17T19:11:16.849Z,13.97
2022-10-17T19:16:18.920Z,12.77
2022-10-17T19:18:50.579Z,11.15
2022-10-17T19:21:21.662Z,13.40
2022-10-17T19:23:51.083Z,11.23
2022-10-17T19:26:17.915Z,16.50
2022-10-17T19:28:44.900Z,12.52
2022-10-17T19:31:15.418Z,11.63
2022-10-17T19:33:44.314Z,12.48
2022-10-17T19:36:11.721Z,12.20
2022-10-17T19:38:38.464Z,15.32
2022-10-17T19:41:09.272Z,15.63
2022-10-17T19:43:37.581Z,15.82
2022-10-17T19:46:06.696Z,16.20
2022-10-17T19:48:34.916Z,14.90
2022-10-17T19:51:01.478Z,19.25
2022-10-17T19:53:29.383Z,16.00
2022-10-17T19:55:57.144Z,21.00
2022-10-17T19:58:25.055Z,13.63
2022-10-17T20:00:57.191Z,16.50
2022-10-17T20:03:24.861Z,11.95
2022-10-17T20:05:51.720Z,17.83
2022-10-17T20:08:18.658Z,15.02
2022-10-17T20:10:46.227Z,14.82
2022-10-17T20:13:13.899Z,14.18
2022-10-17T20:15:40.871Z,19.13
2022-10-17T20:18:08.535Z,19.15
2022-10-17T20:20:36.099Z,15.57
2022-10-17T20:23:03.581Z,14.57
2022-10-17T20:25:30.192Z,16.75
2022-10-17T20:27:56.719Z,15.50
2022-10-17T20:30:23.292Z,19.98
2022-10-17T20:32:55.103Z,16.90
2022-10-17T20:35:22.634Z,17.05
2022-10-17T20:37:49.232Z,12.82
2022-10-17T20:40:34.673Z,17.13
2022-10-17T20:43:02.358Z,17.15
2022-10-17T20:45:43.702Z,16.85
2022-10-17T20:48:16.043Z,23.30
2022-10-17T20:50:43.634Z,21.58
2022-10-17T20:53:35.560Z,18.90
2022-10-17T20:56:08.917Z,16.13
2022-10-17T20:58:35.896Z,19.90
2022-10-17T21:01:09.554Z,19.45
2022-10-17T21:03:39.895Z,17.58
2022-10-17T21:06:11.157Z,15.70
2022-10-17T21:08:37.844Z,19.98
2022-10-17T21:11:16.654Z,18.65
2022-10-17T21:13:43.598Z,15.07
2022-10-17T21:16:18.031Z,16.60
2022-10-17T21:18:45.121Z,21.17
2022-10-17T21:21:11.661Z,16.67
2022-10-17T21:23:39.577Z,16.17
2022-10-17T21:26:08.240Z,16.63
2022-10-17T21:28:35.145Z,18.30
2022-10-17T21:31:21.124Z,17.20
2022-10-17T21:33:56.474Z,15.13
2022-10-17T21:36:24.462Z,14.82
2022-10-17T21:38:52.464Z,14.18
2022-10-17T21:41:20.881Z,15.13
2022-10-17T21:43:48.275Z,14.32
2022-10-17T21:46:17.902Z,15.30
2022-10-17T21:48:44.924Z,9.85
2022-10-17T21:51:16.164Z,9.32
2022-10-17T21:53:43.131Z,7.53
2022-10-17T21:56:12.307Z,11.32
2022-10-17T21:58:39.229Z,12.35
2022-10-17T22:01:10.755Z,9.93
2022-10-17T22:03:42.696Z,10.02
2022-10-17T22:09:00.840Z,16.08
2022-10-17T22:11:30.395Z,12.48
2022-10-17T22:13:59.279Z,11.77
2022-10-17T22:16:26.431Z,11.57
2022-10-17T22:18:56.711Z,9.95
2022-10-17T22:21:23.857Z,13.55
2022-10-17T22:24:04.062Z,11.10
2022-10-17T22:26:32.225Z,15.05
2022-10-17T22:28:58.930Z,10.90
2022-10-17T22:31:26.172Z,10.27
2022-10-17T22:33:53.113Z,9.20
2022-10-17T22:36:20.060Z,13.57
2022-10-17T22:38:46.673Z,14.73
2022-10-17T22:41:13.237Z,10.63
2022-10-17T22:43:39.904Z,11.30
2022-10-17T22:46:07.203Z,15.10
2022-10-17T22:48:34.167Z,10.38
2022-10-17T22:51:01.186Z,11.02
2022-10-17T22:53:27.856Z,11.75
2022-10-17T22:55:58.698Z,11.50
2022-10-17T22:58:25.936Z,11.10
2022-10-17T23:00:53.431Z,13.45
2022-10-17T23:03:21.214Z,11.80
2022-10-17T23:05:47.804Z,15.13
2022-10-17T23:08:15.145Z,15.38
2022-10-17T23:10:42.084Z,14.43
2022-10-17T23:13:08.687Z,12.02
2022-10-17T23:15:35.333Z,12.77
2022-10-17T23:18:02.467Z,12.43
2022-10-17T23:20:30.089Z,11.10
2022-10-17T23:22:57.908Z,16.13
2022-10-17T23:25:24.971Z,15.43
2022-10-17T23:27:51.839Z,15.23
2022-10-17T23:30:18.555Z,12.43
2022-10-17T23:32:45.387Z,15.65
2022-10-17T23:35:12.456Z,12.45
2022-10-17T23:37:39.032Z,12.07
2022-10-17T23:40:06.206Z,10.25
2022-10-17T23:42:32.752Z,12.10
2022-10-17T23:44:59.420Z,17.08
2022-10-17T23:47:26.048Z,12.38
2022-10-17T23:49:52.603Z,13.13
2022-10-17T23:52:19.203Z,11.98
2022-10-17T23:54:45.794Z,10.32
2022-10-17T23:57:12.376Z,15.13
2022-10-17T23:59:38.969Z,12.77
